Terminal Aerodrome Forecast
Issued by NWS

Home | Current Version | Previous Version | Text Only | Print | Product List | Glossary On
Versions: 1 2 3 4 5 6 7 8 9 10 11 12 13
000
FTUS42 TJSJ 261133
TAFKPK
TAF
TKPK 261133Z 2612/2712 00000KT P6SM FEW020
     FM261400 18008KT P6SM FEW024
     FM262300 20004KT P6SM FEW025
      AMD NOT SKED 2702/2711=

USA.gov is the U.S. government's official web portal to all federal, state and local government web resources and services.